Time;durP1;ratioP1;P1;durP2;ratioP2;P2;SDS_P1;SDS_P2;PMS_P1;PMS_P2;Temp;Humidity;BMP_temperature;BMP_pressure;BME280_temperature;BME280_humidity;BME280_pressure;Samples;Min_cycle;Max_cycle;Signal;HPM_P1;HPM_P2
2023/05/02 00:01:55;;;;;;;3.47;2.05;;;;;;;20.68;58.93;100717.56;5074232;28;20052;-55
2023/05/02 00:04:23;;;;;;;3.85;2.22;;;;;;;20.68;58.78;100716.72;5074532;28;20044;-55
2023/05/02 00:06:52;;;;;;;4.20;2.20;;;;;;;20.67;58.55;100715.88;5074661;28;20044;-55
2023/05/02 00:09:20;;;;;;;4.07;2.35;;;;;;;20.68;58.73;100716.72;5074585;28;20055;-54
2023/05/02 00:11:47;;;;;;;4.45;2.35;;;;;;;20.68;58.74;100720.25;5074406;28;20055;-54
2023/05/02 00:14:14;;;;;;;4.32;2.72;;;;;;;20.67;58.86;100723.94;5074214;28;20049;-53
2023/05/02 00:16:42;;;;;;;5.30;2.25;;;;;;;20.68;58.85;100709.50;5074480;28;20056;-55
2023/05/02 00:19:09;;;;;;;5.18;2.35;;;;;;;20.68;58.76;100698.72;5074462;28;20043;-55
2023/05/02 00:21:36;;;;;;;5.22;2.00;;;;;;;20.68;58.82;100696.03;5074507;28;20052;-55
2023/05/02 00:24:04;;;;;;;3.83;1.88;;;;;;;20.67;58.89;100686.28;5074156;28;20041;-55
2023/05/02 00:26:32;;;;;;;2.65;1.65;;;;;;;20.67;58.90;100682.75;5074286;28;20048;-54
2023/05/02 00:29:00;;;;;;;2.80;1.77;;;;;;;20.68;58.71;100685.28;5073933;28;20045;-54
2023/05/02 00:31:27;;;;;;;3.00;2.30;;;;;;;20.67;58.76;100682.75;5074210;28;20060;-55
2023/05/02 00:33:55;;;;;;;3.92;2.22;;;;;;;20.69;58.84;100692.34;5072832;28;20049;-55
2023/05/02 00:36:22;;;;;;;4.45;1.90;;;;;;;20.68;58.86;100671.00;5073075;28;20068;-55
2023/05/02 00:38:49;;;;;;;3.33;1.70;;;;;;;20.68;58.70;100673.69;5074016;28;20059;-55
2023/05/02 00:41:17;;;;;;;3.20;1.95;;;;;;;20.68;58.91;100673.69;5074069;28;20470;-55
2023/05/02 00:43:44;;;;;;;3.83;2.33;;;;;;;20.68;58.81;100673.69;5073559;28;20045;-55
2023/05/02 00:46:12;;;;;;;4.20;2.13;;;;;;;20.69;58.79;100673.53;5072599;28;20055;-54
2023/05/02 00:48:39;;;;;;;2.88;1.83;;;;;;;20.68;58.76;100654.84;5072775;28;20051;-54
2023/05/02 00:51:12;;;;;;;2.58;1.70;;;;;;;20.67;58.69;100667.47;5073634;28;20071;-55
2023/05/02 00:53:40;;;;;;;3.28;1.83;;;;;;;20.67;58.81;100667.47;5073864;28;20045;-55
2023/05/02 00:56:08;;;;;;;5.15;2.00;;;;;;;20.68;58.78;100660.22;5072735;28;20071;-55
2023/05/02 00:58:37;;;;;;;5.63;1.90;;;;;;;20.67;58.87;100648.63;5072111;28;20048;-55
2023/05/02 01:01:38;;;;;;;3.80;2.35;;;;;;;20.68;58.74;100661.06;5073851;28;20048;-53
2023/05/02 01:04:17;;;;;;;2.67;1.45;;;;;;;20.68;58.74;100654.84;5073630;28;20036;-53
2023/05/02 01:07:08;;;;;;;3.63;2.00;;;;;;;20.67;58.75;100659.38;5073405;28;20063;-54
2023/05/02 01:09:46;;;;;;;2.83;1.63;;;;;;;20.68;58.83;100654.84;5055722;28;20052;-54
2023/05/02 01:12:21;;;;;;;3.45;1.98;;;;;;;20.68;58.91;100654.84;5073422;28;20055;-54
2023/05/02 01:14:54;;;;;;;3.22;1.92;;;;;;;20.67;58.79;100645.94;5073650;28;20044;-55
2023/05/02 01:17:31;;;;;;;2.50;1.60;;;;;;;20.68;58.84;100650.31;5073564;28;20413;-54
2023/05/02 01:20:03;;;;;;;2.50;1.58;;;;;;;20.67;58.78;100650.47;5073513;28;20047;-54
2023/05/02 01:22:32;;;;;;;3.33;1.83;;;;;;;20.68;58.87;100636.88;5073500;28;20044;-54
2023/05/02 01:25:26;;;;;;;2.95;1.67;;;;;;;20.67;58.85;100637.88;5072296;28;20052;-54
2023/05/02 01:28:09;;;;;;;5.20;2.15;;;;;;;20.67;58.71;100637.88;5071748;28;20052;-54
2023/05/02 01:30:40;;;;;;;3.30;1.83;;;;;;;20.67;58.90;100626.25;5073444;28;20060;-55
2023/05/02 01:33:11;;;;;;;2.28;1.67;;;;;;;20.67;58.80;100628.97;5072722;28;20045;-55
2023/05/02 01:35:40;;;;;;;2.00;1.40;;;;;;;20.67;58.70;100626.25;5072915;28;20045;-55
2023/05/02 01:38:13;;;;;;;2.85;1.73;;;;;;;20.67;58.83;100627.09;5072078;28;20052;-55
2023/05/02 01:40:44;;;;;;;2.50;1.67;;;;;;;20.67;58.42;100621.72;5072035;28;20053;-55
2023/05/02 01:43:13;;;;;;;3.08;1.77;;;;;;;20.67;58.79;100615.50;5073297;28;20348;-55
2023/05/02 01:45:43;;;;;;;2.13;1.40;;;;;;;20.67;58.91;100627.09;5073241;28;20067;-55
2023/05/02 01:48:13;;;;;;;4.07;1.60;;;;;;;20.67;58.88;100620.88;5071918;28;20064;-55
2023/05/02 01:50:43;;;;;;;2.97;1.50;;;;;;;20.67;58.80;100626.25;5072164;28;20505;-55
2023/05/02 01:53:13;;;;;;;6.13;1.77;;;;;;;20.68;58.76;100619.88;5073187;28;20044;-55
2023/05/02 01:55:44;;;;;;;2.95;1.65;;;;;;;20.66;58.70;100611.97;5071334;28;20056;-55
2023/05/02 01:58:13;;;;;;;2.75;1.40;;;;;;;20.68;58.63;100619.88;5075385;28;20387;-55
2023/05/02 02:00:44;;;;;;;2.88;1.30;;;;;;;20.67;58.68;100620.88;5074978;28;20049;-55
2023/05/02 02:03:13;;;;;;;2.60;1.35;;;;;;;20.66;58.62;100613.78;5074913;28;20053;-55
2023/05/02 02:05:41;;;;;;;2.95;1.73;;;;;;;20.66;58.74;100611.97;5074889;28;20052;-55
2023/05/02 02:08:09;;;;;;;4.90;1.90;;;;;;;20.67;58.68;100613.66;5076694;28;20055;-55
2023/05/02 02:10:42;;;;;;;2.38;1.40;;;;;;;20.66;58.57;100617.34;5074661;28;20063;-54
2023/05/02 02:13:26;;;;;;;3.08;2.00;;;;;;;20.66;58.54;100601.22;5076533;28;20060;-54
2023/05/02 02:16:00;;;;;;;2.75;1.27;;;;;;;20.65;58.71;100612.94;5076688;28;20048;-54
2023/05/02 02:18:31;;;;;;;2.80;1.83;;;;;;;20.66;58.62;100608.41;5075582;28;20498;-54
2023/05/02 02:20:59;;;;;;;2.35;1.50;;;;;;;20.66;58.61;100595.84;5076606;28;20048;-55
2023/05/02 02:23:29;;;;;;;2.83;1.65;;;;;;;20.66;58.64;100601.22;5076330;28;20049;-55
2023/05/02 02:25:57;;;;;;;2.10;1.25;;;;;;;20.66;58.71;100594.94;5075423;28;20490;-55
2023/05/02 02:28:24;;;;;;;2.90;1.40;;;;;;;20.66;58.75;100603.91;5059216;28;20048;-55
2023/05/02 02:30:51;;;;;;;2.35;1.35;;;;;;;20.67;58.80;100607.44;5076434;28;20056;-55
2023/05/02 02:33:19;;;;;;;2.45;1.40;;;;;;;20.66;58.66;100603.91;5076435;28;20044;-55
2023/05/02 02:36:07;;;;;;;3.25;1.67;;;;;;;20.66;58.80;100603.91;5075411;28;20052;-55
2023/05/02 02:38:47;;;;;;;1.95;1.40;;;;;;;20.66;58.83;100603.03;5076163;28;20048;-55
2023/05/02 02:41:14;;;;;;;3.13;1.40;;;;;;;20.65;58.78;100599.50;5075636;28;20048;-55
2023/05/02 02:43:46;;;;;;;3.47;1.60;;;;;;;20.66;58.82;100597.66;5075584;28;20048;-55
2023/05/02 02:46:25;;;;;;;2.60;1.42;;;;;;;20.66;58.89;100592.25;5076079;28;20044;-55
2023/05/02 02:49:07;;;;;;;3.08;1.98;;;;;;;20.65;58.84;100588.72;5076097;28;20055;-54
2023/05/02 02:51:45;;;;;;;2.88;1.40;;;;;;;20.65;58.66;100583.34;5076059;28;20391;-53
2023/05/02 02:54:38;;;;;;;2.45;1.50;;;;;;;20.65;58.69;100583.34;5074647;28;20437;-53
2023/05/02 02:57:15;;;;;;;2.22;1.48;;;;;;;20.65;58.72;100586.03;5074683;28;20398;-53
2023/05/02 03:00:14;;;;;;;2.47;1.42;;;;;;;20.65;58.89;100577.13;5076058;28;20067;-53
2023/05/02 03:02:45;;;;;;;3.72;1.67;;;;;;;20.64;58.82;100578.97;5073595;28;20056;-53
2023/05/02 03:05:14;;;;;;;2.30;1.45;;;;;;;20.65;58.72;100585.19;5074832;28;20482;-53
2023/05/02 03:07:42;;;;;;;2.22;1.48;;;;;;;20.64;58.62;100580.81;5074059;28;20044;-53
2023/05/02 03:10:10;;;;;;;2.65;1.60;;;;;;;20.64;58.67;100578.13;5074389;28;20052;-55
2023/05/02 03:12:39;;;;;;;2.65;1.60;;;;;;;20.65;58.63;100582.50;5074134;28;20057;-55
2023/05/02 03:15:13;;;;;;;5.28;1.83;;;;;;;20.64;58.64;100578.13;5073960;28;20052;-55
2023/05/02 03:17:42;;;;;;;2.58;1.60;;;;;;;20.64;58.55;100584.34;5074574;28;20127;-55
2023/05/02 03:20:10;;;;;;;2.90;1.58;;;;;;;20.63;58.55;100574.59;5075668;28;20055;-55
2023/05/02 03:22:37;;;;;;;2.72;1.65;;;;;;;20.64;58.79;100568.22;5075349;28;20045;-55
2023/05/02 03:25:06;;;;;;;3.20;1.73;;;;;;;20.63;58.52;100568.38;5073906;28;20048;-55
2023/05/02 03:27:34;;;;;;;2.40;1.70;;;;;;;20.63;58.72;100573.75;5074286;28;20060;-55
2023/05/02 03:30:04;;;;;;;2.90;1.60;;;;;;;20.63;58.58;100569.22;5074415;28;20049;-55
2023/05/02 03:32:32;;;;;;;3.38;1.73;;;;;;;20.63;58.51;100571.06;5073439;28;20052;-55
2023/05/02 03:34:59;;;;;;;3.45;1.45;;;;;;;20.62;58.63;100572.91;5074785;28;20045;-55
2023/05/02 03:37:33;;;;;;;3.08;1.67;;;;;;;20.62;58.66;100572.03;5073704;28;20044;-55
2023/05/02 03:40:01;;;;;;;2.50;1.50;;;;;;;20.62;58.66;100572.03;5075087;28;20045;-55
2023/05/02 03:42:29;;;;;;;2.97;1.80;;;;;;;20.62;58.60;100572.03;5075172;28;20071;-55
2023/05/02 03:44:57;;;;;;;2.70;1.77;;;;;;;20.62;58.56;100572.03;5073661;28;20479;-55
2023/05/02 03:47:26;;;;;;;2.70;1.63;;;;;;;20.62;58.66;100588.16;5073640;28;20056;-55
2023/05/02 03:49:55;;;;;;;2.47;1.63;;;;;;;20.60;58.52;100579.41;5073526;28;20418;-53
2023/05/02 03:52:22;;;;;;;4.57;1.75;;;;;;;20.60;58.43;100585.63;5073563;28;20371;-54
2023/05/02 03:54:52;;;;;;;3.85;1.50;;;;;;;20.61;58.52;100611.53;5073804;28;20044;-53
2023/05/02 03:57:20;;;;;;;2.45;1.70;;;;;;;20.60;58.40;100596.41;5074808;28;20040;-54
2023/05/02 03:59:48;;;;;;;3.65;1.70;;;;;;;20.62;58.53;100598.94;5073622;28;20044;-54
2023/05/02 04:02:25;;;;;;;2.50;1.80;;;;;;;20.59;58.57;100597.41;5073364;28;20052;-54
2023/05/02 04:04:52;;;;;;;2.78;1.88;;;;;;;20.61;58.66;100610.69;5072800;28;20044;-54
2023/05/02 04:07:24;;;;;;;2.83;1.63;;;;;;;20.60;58.43;100606.31;5073213;28;20048;-56
2023/05/02 04:10:01;;;;;;;2.60;1.65;;;;;;;20.60;58.54;100614.38;5072817;28;20059;-55
2023/05/02 04:12:33;;;;;;;3.05;1.60;;;;;;;20.60;58.55;100622.44;5072990;28;20075;-55
2023/05/02 04:15:00;;;;;;;3.50;1.90;;;;;;;20.59;58.57;100616.22;5072860;28;20044;-55
2023/05/02 04:17:29;;;;;;;3.58;1.83;;;;;;;20.59;58.68;100627.00;5072286;28;20056;-55
2023/05/02 04:19:56;;;;;;;3.45;2.03;;;;;;;20.59;58.67;100626.13;5073181;28;20036;-55
2023/05/02 04:22:28;;;;;;;3.83;1.70;;;;;;;20.59;58.95;100621.59;5072751;28;20138;-55
2023/05/02 04:24:59;;;;;;;2.83;2.10;;;;;;;20.60;58.77;100631.38;5072507;28;20174;-55
2023/05/02 04:27:28;;;;;;;2.50;1.98;;;;;;;20.59;58.90;100631.53;5072484;28;20516;-55
2023/05/02 04:29:57;;;;;;;3.65;1.80;;;;;;;20.59;58.78;100640.44;5072656;28;20059;-55
2023/05/02 04:32:26;;;;;;;2.67;1.90;;;;;;;20.59;58.76;100637.75;5073112;28;20063;-53
2023/05/02 04:34:55;;;;;;;2.85;2.15;;;;;;;20.58;58.68;100638.75;5072590;28;20071;-55
2023/05/02 04:37:24;;;;;;;2.63;1.92;;;;;;;20.57;58.76;100645.09;5072766;28;20052;-54
2023/05/02 04:39:51;;;;;;;3.58;2.15;;;;;;;20.57;58.80;100653.16;5074050;28;20402;-54
2023/05/02 04:42:23;;;;;;;2.50;1.67;;;;;;;20.56;58.79;100664.91;5073319;28;20055;-55
2023/05/02 04:44:58;;;;;;;3.10;1.88;;;;;;;20.55;58.76;100668.59;5072532;28;20052;-53
2023/05/02 04:47:25;;;;;;;2.97;1.88;;;;;;;20.56;58.71;100674.84;5074096;28;20061;-54
2023/05/02 04:49:53;;;;;;;4.28;1.83;;;;;;;20.55;58.70;100674.00;5072692;28;20044;-54
2023/05/02 04:52:20;;;;;;;3.28;1.98;;;;;;;20.56;58.64;100674.84;5072704;28;20048;-54
2023/05/02 04:54:48;;;;;;;5.63;2.15;;;;;;;20.55;58.70;100690.13;5074406;28;20454;-54
2023/05/02 04:57:15;;;;;;;2.35;1.65;;;;;;;20.54;58.56;100688.44;5073763;28;20041;-54
2023/05/02 04:59:46;;;;;;;2.72;1.88;;;;;;;20.54;58.79;100691.13;5072382;28;20071;-53
2023/05/02 05:02:14;;;;;;;2.95;2.05;;;;;;;20.55;58.54;100698.19;5072611;28;20048;-55
2023/05/02 05:04:41;;;;;;;4.35;2.05;;;;;;;20.54;58.69;100701.88;5072026;28;20052;-54
2023/05/02 05:07:09;;;;;;;3.97;2.03;;;;;;;20.54;58.67;100711.75;5072030;28;20052;-54
2023/05/02 05:09:37;;;;;;;3.05;1.90;;;;;;;20.54;58.86;100719.84;5073831;28;20059;-55
2023/05/02 05:12:04;;;;;;;2.75;1.60;;;;;;;20.54;58.73;100718.03;5072073;28;20052;-55
2023/05/02 05:14:34;;;;;;;3.80;2.10;;;;;;;20.53;58.60;100729.75;5072512;28;20060;-55
2023/05/02 05:17:02;;;;;;;3.17;1.88;;;;;;;20.53;58.63;100735.13;5072424;28;20075;-55
2023/05/02 05:19:30;;;;;;;3.65;2.03;;;;;;;20.53;58.45;100737.81;5072283;28;20052;-55
2023/05/02 05:21:57;;;;;;;3.47;2.00;;;;;;;20.53;58.52;100739.66;5073547;28;20494;-55
2023/05/02 05:24:25;;;;;;;3.63;1.65;;;;;;;20.52;58.47;100746.03;5074031;28;20057;-55
2023/05/02 05:26:55;;;;;;;3.75;1.92;;;;;;;20.53;58.62;100750.41;5072473;28;20052;-55
2023/05/02 05:29:22;;;;;;;3.00;1.90;;;;;;;20.52;58.45;100763.00;5072415;28;20382;-55
2023/05/02 05:31:50;;;;;;;2.80;1.80;;;;;;;20.52;58.51;100765.72;5075622;28;20075;-55
2023/05/02 05:34:20;;;;;;;2.80;2.03;;;;;;;20.52;58.38;100770.25;5076130;28;20056;-55
2023/05/02 05:36:49;;;;;;;4.25;1.73;;;;;;;20.52;58.52;100773.78;5076222;28;20053;-55
2023/05/02 05:39:18;;;;;;;3.08;2.15;;;;;;;20.52;58.71;100776.47;5076578;28;20414;-54
2023/05/02 05:41:48;;;;;;;2.90;1.90;;;;;;;20.52;58.64;100779.16;5076484;28;20057;-55
2023/05/02 05:44:16;;;;;;;2.70;1.70;;;;;;;20.53;58.50;100783.53;5075755;28;20057;-55
2023/05/02 05:46:44;;;;;;;3.95;1.83;;;;;;;20.52;58.42;100781.84;5075431;28;20379;-55
2023/05/02 05:49:15;;;;;;;2.60;1.70;;;;;;;20.52;58.63;100781.84;5075990;28;20063;-55
2023/05/02 05:51:43;;;;;;;3.47;1.70;;;;;;;20.52;58.62;100792.59;5075747;28;20053;-55
2023/05/02 05:54:10;;;;;;;3.00;1.92;;;;;;;20.52;58.43;100799.81;5059125;28;20525;-55
2023/05/02 05:56:38;;;;;;;2.55;1.65;;;;;;;20.53;58.54;100801.50;5075557;28;20052;-55
2023/05/02 05:59:13;;;;;;;2.70;1.92;;;;;;;20.51;58.55;100807.03;5075625;28;20048;-55
2023/05/02 06:01:41;;;;;;;2.83;2.00;;;;;;;20.52;58.68;100806.03;5076904;28;20052;-54
2023/05/02 06:04:09;;;;;;;2.58;1.73;;;;;;;20.52;58.61;100810.56;5075896;28;20052;-54
2023/05/02 06:06:40;;;;;;;2.88;2.10;;;;;;;20.52;58.48;100813.28;5076784;28;20036;-54
2023/05/02 06:09:08;;;;;;;2.97;2.15;;;;;;;20.51;58.64;100819.66;5076927;28;20051;-54
2023/05/02 06:11:37;;;;;;;2.80;1.75;;;;;;;20.51;58.56;100823.19;5076264;28;20040;-55
2023/05/02 06:14:05;;;;;;;3.80;2.13;;;;;;;20.51;58.55;100827.72;5074944;28;20060;-54
2023/05/02 06:16:32;;;;;;;2.92;2.00;;;;;;;20.51;58.68;100831.25;5076387;28;20111;-54
2023/05/02 06:19:00;;;;;;;2.50;1.80;;;;;;;20.52;58.83;100835.63;5074862;28;20059;-55
2023/05/02 06:21:27;;;;;;;3.13;1.55;;;;;;;20.52;58.77;100830.25;5076759;28;20067;-54
2023/05/02 06:23:55;;;;;;;3.28;2.05;;;;;;;20.52;58.93;100835.63;5075242;28;20382;-55
2023/05/02 06:26:22;;;;;;;4.60;2.10;;;;;;;20.52;58.74;100837.47;5075746;28;20044;-55
2023/05/02 06:28:49;;;;;;;3.20;2.05;;;;;;;20.52;58.68;100840.16;5076325;28;20045;-55
2023/05/02 06:31:17;;;;;;;3.35;1.83;;;;;;;20.51;58.76;100850.06;5076072;28;20356;-54
2023/05/02 06:33:45;;;;;;;4.47;1.90;;;;;;;20.52;59.03;100846.38;5075981;28;20036;-53
2023/05/02 06:36:12;;;;;;;6.07;2.33;;;;;;;20.53;58.89;100845.38;5075885;28;20044;-53
2023/05/02 06:38:39;;;;;;;7.15;2.58;;;;;;;20.50;58.41;100856.44;5075797;28;20059;-53
2023/05/02 06:41:12;;;;;;;4.95;2.30;;;;;;;20.49;59.13;100858.25;5076071;28;20045;-55
2023/05/02 06:43:39;;;;;;;5.88;2.60;;;;;;;20.49;59.26;100858.25;5075580;28;20486;-55
2023/05/02 06:46:09;;;;;;;9.52;2.78;;;;;;;20.49;59.24;100858.25;5076563;28;20419;-54
2023/05/02 06:48:40;;;;;;;9.10;2.75;;;;;;;20.50;59.24;100864.53;5076152;28;20509;-55
2023/05/02 06:51:07;;;;;;;6.25;2.83;;;;;;;20.49;59.05;100860.94;5076222;28;20049;-53
2023/05/02 06:53:35;;;;;;;4.10;2.28;;;;;;;20.48;58.87;100861.94;5075772;28;20048;-53
2023/05/02 06:56:02;;;;;;;3.50;2.60;;;;;;;20.49;58.55;100876.25;5075549;28;20040;-53
2023/05/02 06:58:30;;;;;;;5.97;2.50;;;;;;;20.48;58.26;100870.00;5063551;28;20056;-53
2023/05/02 07:00:57;;;;;;;4.50;2.38;;;;;;;20.47;58.05;100880.88;5055484;28;20049;-53
2023/05/02 07:03:24;;;;;;;4.78;2.28;;;;;;;20.46;58.08;100879.19;5071540;28;20044;-54
2023/05/02 07:05:52;;;;;;;3.75;2.30;;;;;;;20.45;58.03;100877.47;5074676;28;20505;-54
2023/05/02 07:08:21;;;;;;;3.50;2.40;;;;;;;20.43;57.87;100877.63;5070826;28;20037;-54
2023/05/02 07:10:49;;;;;;;3.33;2.92;;;;;;;20.43;58.16;100882.16;5055208;28;20397;-53
2023/05/02 07:13:16;;;;;;;3.40;2.40;;;;;;;20.42;57.99;100883.16;5054464;28;20056;-53
2023/05/02 07:15:44;;;;;;;2.70;2.05;;;;;;;20.40;57.77;100885.94;5055188;28;20399;-54
2023/05/02 07:18:11;;;;;;;3.78;3.00;;;;;;;20.39;57.87;100886.94;5055192;28;20052;-54
2023/05/02 07:20:41;;;;;;;3.33;2.17;;;;;;;20.38;57.99;100885.25;5055310;28;20045;-53
2023/05/02 07:23:08;;;;;;;2.83;2.10;;;;;;;20.38;57.94;100893.31;5054685;28;20060;-53
2023/05/02 07:25:36;;;;;;;3.63;2.03;;;;;;;20.36;57.76;100889.91;5055000;28;20371;-52
2023/05/02 07:28:04;;;;;;;2.95;2.33;;;;;;;20.36;57.71;100892.59;5054960;28;20053;-52
2023/05/02 07:30:31;;;;;;;4.35;2.75;;;;;;;20.36;58.15;100891.75;5054786;28;20056;-54
2023/05/02 07:32:59;;;;;;;3.35;2.10;;;;;;;20.35;58.06;100887.38;5053642;28;20053;-54
2023/05/02 07:35:26;;;;;;;3.00;2.13;;;;;;;20.34;58.00;100894.59;5054881;28;20053;-54
2023/05/02 07:37:53;;;;;;;3.00;2.15;;;;;;;20.35;58.18;100893.59;5055071;28;20463;-54
2023/05/02 07:40:21;;;;;;;3.20;2.55;;;;;;;20.36;58.19;100899.81;5055013;28;20525;-54
2023/05/02 07:42:49;;;;;;;3.05;2.20;;;;;;;20.36;58.35;100899.81;5054992;28;20041;-54
2023/05/02 07:45:17;;;;;;;3.45;2.30;;;;;;;20.36;58.17;100899.81;5054269;28;20052;-54
2023/05/02 07:47:45;;;;;;;4.93;2.10;;;;;;;20.36;58.22;100903.34;5054446;28;20041;-54
2023/05/02 07:50:12;;;;;;;2.92;2.17;;;;;;;20.36;57.93;100902.50;5054369;28;20483;-54
2023/05/02 07:52:39;;;;;;;4.60;1.95;;;;;;;20.35;57.93;100906.19;5054304;28;20522;-55
2023/05/02 07:55:07;;;;;;;4.30;2.50;;;;;;;20.34;57.82;100902.66;5052756;28;20044;-55
2023/05/02 07:57:34;;;;;;;3.90;1.92;;;;;;;20.34;58.05;100907.19;5053976;28;20096;-54
2023/05/02 08:00:02;;;;;;;4.75;2.10;;;;;;;20.34;58.08;100920.63;5053989;28;20052;-55
2023/05/02 08:02:41;;;;;;;3.03;2.05;;;;;;;20.35;58.09;100914.25;5060777;28;20072;-54
2023/05/02 08:05:08;;;;;;;3.33;2.20;;;;;;;20.34;58.15;100913.41;5054205;28;20380;-55
2023/05/02 08:07:36;;;;;;;3.33;2.10;;;;;;;20.34;57.96;100912.56;5054018;28;20403;-55
2023/05/02 08:10:05;;;;;;;3.17;2.35;;;;;;;20.35;58.14;100919.63;5054238;28;20479;-53
2023/05/02 08:12:37;;;;;;;3.10;2.00;;;;;;;20.35;58.09;100914.25;5053733;28;20507;-53
2023/05/02 08:15:10;;;;;;;2.70;1.88;;;;;;;20.34;57.99;100924.16;5053886;28;20049;-53
2023/05/02 08:17:37;;;;;;;2.95;2.17;;;;;;;20.35;57.99;100919.63;5053939;28;20041;-54
2023/05/02 08:20:05;;;;;;;4.22;2.38;;;;;;;20.34;58.03;100918.78;5054137;28;20463;-53
2023/05/02 08:22:33;;;;;;;2.85;1.83;;;;;;;20.36;57.99;100924.00;5054064;28;20045;-53
2023/05/02 08:25:00;;;;;;;2.40;1.60;;;;;;;20.34;58.19;100916.09;5053662;28;20056;-54
2023/05/02 08:27:27;;;;;;;3.08;1.80;;;;;;;20.35;58.02;100925.84;5064530;28;20044;-53
2023/05/02 08:29:54;;;;;;;4.97;1.70;;;;;;;20.35;58.22;100912.41;5074206;28;20052;-53
2023/05/02 08:32:25;;;;;;;3.13;2.05;;;;;;;20.36;58.03;100924.88;5073881;28;20044;-54
2023/05/02 08:34:56;;;;;;;2.83;1.88;;;;;;;20.35;58.13;100931.22;5073262;28;20044;-53
2023/05/02 08:37:23;;;;;;;3.15;2.20;;;;;;;20.36;57.98;100934.78;5073472;28;20045;-54
2023/05/02 08:39:50;;;;;;;6.18;2.40;;;;;;;20.36;58.03;100926.69;5072366;28;20494;-54
2023/05/02 08:42:19;;;;;;;6.65;2.13;;;;;;;20.36;58.15;100940.16;5072256;28;20075;-54
2023/05/02 08:44:48;;;;;;;3.67;1.85;;;;;;;20.36;57.76;100942.84;5073468;28;20044;-53
2023/05/02 08:47:18;;;;;;;4.00;2.55;;;;;;;20.35;58.02;100936.59;5073123;28;20067;-54
2023/05/02 08:49:47;;;;;;;3.67;2.38;;;;;;;20.35;58.10;100946.53;5073394;28;20490;-54
2023/05/02 08:52:18;;;;;;;2.90;1.77;;;;;;;20.34;58.06;100955.56;5072976;28;20040;-54
2023/05/02 08:54:46;;;;;;;3.45;2.00;;;;;;;20.35;58.03;100959.97;5073337;28;20044;-53
2023/05/02 08:57:14;;;;;;;3.50;2.38;;;;;;;20.33;58.05;100957.38;5072764;28;20055;-53
2023/05/02 08:59:42;;;;;;;4.35;2.45;;;;;;;20.33;58.14;100959.22;5073544;28;20049;-54
2023/05/02 09:02:36;;;;;;;3.83;2.08;;;;;;;20.33;58.14;100959.22;5073312;28;20048;-54
2023/05/02 09:05:06;;;;;;;3.55;2.00;;;;;;;20.32;58.11;100968.28;5072995;28;20048;-54
2023/05/02 09:07:47;;;;;;;6.07;1.90;;;;;;;20.33;58.01;100964.59;5073146;28;20040;-55
2023/05/02 09:10:14;;;;;;;5.82;2.15;;;;;;;20.34;58.18;100977.09;5073439;28;20048;-54
2023/05/02 09:12:42;;;;;;;3.35;1.42;;;;;;;20.34;58.06;100960.97;5073080;28;20061;-54
2023/05/02 09:15:14;;;;;;;2.95;1.70;;;;;;;20.33;58.30;100957.38;5073212;28;20045;-54
2023/05/02 09:17:47;;;;;;;2.72;1.83;;;;;;;20.33;58.22;100975.38;5072969;28;20032;-55
2023/05/02 09:20:15;;;;;;;3.35;1.75;;;;;;;20.33;58.21;100959.22;5073255;28;20040;-53
2023/05/02 09:22:51;;;;;;;2.42;1.55;;;;;;;20.33;58.26;100967.28;5072063;28;20146;-54
2023/05/02 09:25:19;;;;;;;4.13;2.00;;;;;;;20.33;58.30;100972.66;5073119;28;20067;-53
2023/05/02 09:27:52;;;;;;;3.00;1.85;;;;;;;20.33;58.47;100972.66;5072735;28;20037;-54
2023/05/02 09:30:24;;;;;;;4.43;2.00;;;;;;;20.33;58.36;100965.47;5073187;28;20045;-55
2023/05/02 09:32:54;;;;;;;3.75;2.00;;;;;;;20.33;58.37;100986.97;5072932;28;20044;-55
2023/05/02 09:35:25;;;;;;;3.35;1.80;;;;;;;20.34;58.37;100975.25;5073180;28;20053;-55
2023/05/02 09:37:56;;;;;;;5.38;1.65;;;;;;;20.33;58.39;100962.75;5072902;28;20052;-55
2023/05/02 09:40:26;;;;;;;2.92;1.83;;;;;;;20.33;58.45;100978.06;5072339;28;20056;-55
2023/05/02 09:42:54;;;;;;;3.85;1.85;;;;;;;20.33;58.39;100986.13;5072482;28;20048;-56
2023/05/02 09:45:26;;;;;;;2.60;1.80;;;;;;;20.31;58.17;100986.25;5072294;28;20045;-55
2023/05/02 09:47:54;;;;;;;3.10;1.90;;;;;;;20.32;58.18;100971.81;5071919;28;20497;-55
2023/05/02 09:50:35;;;;;;;2.47;1.80;;;;;;;20.32;58.18;100965.59;5071377;28;20045;-54
2023/05/02 09:53:05;;;;;;;3.22;2.13;;;;;;;20.32;58.24;100976.34;5072195;28;20040;-52
2023/05/02 09:55:32;;;;;;;3.50;1.58;;;;;;;20.28;58.17;100974.94;5072838;28;20491;-51
2023/05/02 09:58:00;;;;;;;2.67;1.65;;;;;;;20.23;58.30;100986.94;5072694;28;20043;-52
2023/05/02 10:00:41;;;;;;;3.15;1.67;;;;;;;20.16;58.60;100976.84;5073009;28;20494;-56
2023/05/02 10:03:09;;;;;;;2.33;1.65;;;;;;;20.12;58.58;100978.94;5072401;28;20052;-56
2023/05/02 10:05:38;;;;;;;2.60;1.70;;;;;;;20.09;58.90;100986.41;5072906;28;20044;-56
2023/05/02 10:08:06;;;;;;;2.63;1.63;;;;;;;20.05;59.10;100988.50;5072512;28;20478;-56
2023/05/02 10:10:43;;;;;;;3.72;2.35;;;;;;;20.02;59.00;100983.44;5072557;28;20048;-56
2023/05/02 10:13:12;;;;;;;2.30;1.50;;;;;;;19.99;59.11;100981.00;5072122;28;20067;-56
2023/05/02 10:15:43;;;;;;;3.03;1.92;;;;;;;19.95;59.17;100977.72;5072669;28;20045;-57
2023/05/02 10:18:13;;;;;;;2.78;1.60;;;;;;;19.92;59.38;100966.38;5074422;28;20067;-56
2023/05/02 10:20:53;;;;;;;3.13;1.70;;;;;;;19.89;59.47;100975.56;5076105;28;20395;-56
2023/05/02 10:23:24;;;;;;;2.70;1.77;;;;;;;19.88;59.49;100975.69;5075645;28;20380;-56
2023/05/02 10:25:52;;;;;;;2.55;1.77;;;;;;;19.85;59.53;100982.19;5076283;28;20052;-56
2023/05/02 10:28:19;;;;;;;2.70;1.90;;;;;;;19.86;59.58;100991.09;5075588;28;20044;-55
2023/05/02 10:30:48;;;;;;;2.85;1.60;;;;;;;19.87;59.53;100984.75;5076447;28;20385;-54
2023/05/02 10:33:19;;;;;;;2.50;1.52;;;;;;;19.90;59.44;100993.41;5075730;28;20494;-53
2023/05/02 10:35:47;;;;;;;2.05;1.60;;;;;;;19.94;59.39;100991.31;5075075;28;20044;-53
2023/05/02 10:38:20;;;;;;;2.63;1.52;;;;;;;19.98;59.24;100984.69;5075683;28;20387;-53
2023/05/02 10:41:02;;;;;;;2.58;1.77;;;;;;;20.00;59.40;100988.91;5076072;28;20055;-55
2023/05/02 10:43:34;;;;;;;2.70;1.65;;;;;;;20.03;59.07;100990.50;5075226;28;20052;-55
2023/05/02 10:46:05;;;;;;;2.40;1.80;;;;;;;20.05;59.01;100993.03;5075553;28;20048;-55
2023/05/02 10:48:33;;;;;;;3.45;2.03;;;;;;;20.08;59.08;101000.84;5075464;28;20292;-55
2023/05/02 10:51:00;;;;;;;4.07;1.80;;;;;;;20.08;59.04;100993.63;5075592;28;20475;-55
2023/05/02 10:53:29;;;;;;;2.60;1.80;;;;;;;20.11;58.95;100998.75;5075519;28;20052;-55
2023/05/02 10:56:08;;;;;;;4.00;2.08;;;;;;;20.10;59.50;100990.84;5075823;28;20040;-55
2023/05/02 10:58:39;;;;;;;4.18;2.28;;;;;;;20.06;59.68;100992.94;5075229;28;20041;-55
2023/05/02 11:01:27;;;;;;;3.55;2.40;;;;;;;19.99;59.69;100987.22;5075618;28;20048;-55
2023/05/02 11:04:09;;;;;;;3.28;2.15;;;;;;;19.92;59.92;100982.50;5075378;28;20060;-55
2023/05/02 11:06:59;;;;;;;3.38;2.22;;;;;;;19.86;60.05;100989.28;5074212;28;20498;-55
2023/05/02 11:09:27;;;;;;;2.55;1.75;;;;;;;19.85;60.01;100992.94;5075007;28;20060;-55
2023/05/02 11:11:56;;;;;;;2.85;1.45;;;;;;;19.87;60.02;100992.81;5074816;28;20041;-56
2023/05/02 11:14:24;;;;;;;2.60;1.70;;;;;;;19.89;59.83;100994.38;5075433;28;20049;-55
2023/05/02 11:16:58;;;;;;;3.55;1.80;;;;;;;19.92;59.69;100999.47;5074982;28;20049;-55
2023/05/02 11:19:27;;;;;;;2.83;1.70;;;;;;;19.96;59.77;101000.91;5075103;28;20040;-53
2023/05/02 11:22:26;;;;;;;2.60;1.90;;;;;;;19.97;59.77;100999.94;5074986;28;20466;-53
2023/05/02 11:24:54;;;;;;;2.72;1.70;;;;;;;20.00;59.66;101001.50;5075027;28;20479;-54
2023/05/02 11:27:37;;;;;;;2.70;1.88;;;;;;;20.04;59.79;101005.63;5074634;28;20406;-53
2023/05/02 11:30:05;;;;;;;3.45;2.30;;;;;;;20.04;59.96;101005.63;5074481;28;20487;-55
2023/05/02 11:32:48;;;;;;;3.47;2.22;;;;;;;20.06;60.01;101003.69;5074427;28;20056;-55
2023/05/02 11:35:30;;;;;;;2.95;2.15;;;;;;;20.08;60.08;101012.44;5074482;28;20509;-55
2023/05/02 11:37:58;;;;;;;2.53;1.90;;;;;;;20.09;60.02;101010.59;5074645;28;20036;-55
2023/05/02 11:40:27;;;;;;;2.60;1.98;;;;;;;20.10;60.38;101017.72;5074245;28;20055;-55